Time;durP1;ratioP1;P1;durP2;ratioP2;P2;SDS_P1;SDS_P2;PMS_P1;PMS_P2;Temp;Humidity;BMP_temperature;BMP_pressure;BME280_temperature;BME280_humidity;BME280_pressure;Samples;Min_cycle;Max_cycle;Signal;HPM_P1;HPM_P2
2024/02/09 06:54:54;;;;;;;4.00;1.42;;;;;;;;;;10659480;22;20048;-81
2024/02/09 06:59:55;;;;;;;2.25;0.98;;;;;;;;;;10579978;28;20364;-82
2024/02/09 07:05:00;;;;;;;2.60;1.05;;;;;;;;;;10579669;28;20161;-80
2024/02/09 07:10:02;;;;;;;2.35;1.10;;;;;;;;;;10579291;28;20104;-80
2024/02/09 07:15:02;;;;;;;;;;;;;;;;;;10579576;28;20024;-81
2024/02/09 07:20:04;;;;;;;2.47;1.20;;;;;;;;;;10577731;28;19948;-80
2024/02/09 07:25:05;;;;;;;2.55;0.90;;;;;;;;;;10577603;28;20070;-81
2024/02/09 07:30:10;;;;;;;1.55;0.75;;;;;;;;;;10580775;28;20024;-81
2024/02/09 07:35:11;;;;;;;2.17;1.25;;;;;;;;;;10579950;28;20024;-81
2024/02/09 07:40:16;;;;;;;;;;;;;;;;;;10579012;28;20030;-81
2024/02/09 07:45:17;;;;;;;2.70;0.95;;;;;;;;;;10580984;28;20374;-82
2024/02/09 07:50:18;;;;;;;;;;;;;;;;;;10577202;28;20064;-81
2024/02/09 07:55:21;;;;;;;4.65;1.10;;;;;;;;;;10550892;28;19956;-81
2024/02/09 08:00:22;;;;;;;3.53;1.90;;;;;;;;;;10551324;28;20032;-82
2024/02/09 08:05:24;;;;;;;2.03;0.88;;;;;;;;;;10568695;28;20502;-80
2024/02/09 08:10:25;;;;;;;1.80;0.80;;;;;;;;;;10566044;28;20103;-82
2024/02/09 08:15:26;;;;;;;;;;;;;;;;;;10555325;28;20499;-81
2024/02/09 08:20:27;;;;;;;2.45;1.00;;;;;;;;;;10556381;28;19914;-85
2024/02/09 08:25:28;;;;;;;;;;;;;;;;;;10565256;28;20493;-86
2024/02/09 08:30:32;;;;;;;5.35;1.48;;;;;;;;;;10565278;28;19908;-83
2024/02/09 08:35:33;;;;;;;2.30;1.30;;;;;;;;;;10572456;28;20027;-82
2024/02/09 08:40:34;;;;;;;2.55;1.20;;;;;;;;;;10560505;28;20020;-84
2024/02/09 08:45:36;;;;;;;4.82;1.80;;;;;;;;;;10556445;28;20024;-84
2024/02/09 08:50:37;;;;;;;4.40;1.50;;;;;;;;;;10555028;28;20020;-84
2024/02/09 08:55:38;;;;;;;;;;;;;;;;;;10556592;28;20089;-84
2024/02/09 09:00:39;;;;;;;3.38;1.50;;;;;;;;;;10563918;28;19919;-86
2024/02/09 09:05:41;;;;;;;3.15;1.23;;;;;;;;;;10560337;28;20510;-85
2024/02/09 09:10:42;;;;;;;8.98;5.57;;;;;;;;;;10564376;28;20365;-86
2024/02/09 09:15:43;;;;;;;;;;;;;;;;;;10567019;28;20050;-84
2024/02/09 09:20:45;;;;;;;3.92;1.70;;;;;;;;;;10578045;28;19908;-85
2024/02/09 09:25:48;;;;;;;5.32;1.92;;;;;;;;;;10570016;28;20039;-85
2024/02/09 09:30:49;;;;;;;3.67;1.30;;;;;;;;;;10563870;28;20032;-85
2024/02/09 09:35:52;;;;;;;;;;;;;;;;;;10562486;28;20431;-84
2024/02/09 09:40:54;;;;;;;3.00;1.63;;;;;;;;;;10560499;28;19908;-85
2024/02/09 09:45:57;;;;;;;4.50;1.67;;;;;;;;;;10564236;28;20027;-85
2024/02/09 09:50:58;;;;;;;5.30;2.50;;;;;;;;;;10560784;28;20074;-85
2024/02/09 09:56:00;;;;;;;3.20;1.40;;;;;;;;;;10564944;28;20036;-85
2024/02/09 10:01:02;;;;;;;3.53;2.00;;;;;;;;;;10556560;28;20032;-84
2024/02/09 10:06:03;;;;;;;2.60;1.52;;;;;;;;;;10551123;28;20031;-84
2024/02/09 10:11:08;;;;;;;5.18;1.58;;;;;;;;;;10555512;28;20032;-83
2024/02/09 10:16:09;;;;;;;2.78;1.40;;;;;;;;;;10557710;28;20059;-84
2024/02/09 10:21:11;;;;;;;4.03;1.52;;;;;;;;;;10561620;28;20103;-84
2024/02/09 10:26:12;;;;;;;3.70;1.58;;;;;;;;;;10558315;28;20047;-85
2024/02/09 10:31:15;;;;;;;3.45;1.45;;;;;;;;;;10561637;28;20352;-85
2024/02/09 10:36:16;;;;;;;2.40;1.52;;;;;;;;;;10572390;28;20020;-83
2024/02/09 10:41:18;;;;;;;2.75;1.52;;;;;;;;;;10554425;28;20122;-83
2024/02/09 10:46:23;;;;;;;5.28;2.63;;;;;;;;;;10551361;28;20030;-80
2024/02/09 10:51:30;;;;;;;3.47;1.25;;;;;;;;;;10554457;28;20119;-82
2024/02/09 10:56:35;;;;;;;3.63;1.42;;;;;;;;;;10555897;28;20099;-83
2024/02/09 11:01:37;;;;;;;3.95;1.80;;;;;;;;;;10555675;28;20091;-83
2024/02/09 11:06:41;;;;;;;3.75;1.77;;;;;;;;;;10555466;28;20028;-84
2024/02/09 11:11:44;;;;;;;5.10;1.73;;;;;;;;;;10554409;28;20024;-83
2024/02/09 11:16:50;;;;;;;3.97;1.70;;;;;;;;;;10559303;28;20024;-83
2024/02/09 11:21:57;;;;;;;3.55;1.50;;;;;;;;;;10561808;28;20043;-83
2024/02/09 11:26:59;;;;;;;3.97;1.63;;;;;;;;;;10573782;28;20050;-83
2024/02/09 11:32:05;;;;;;;3.50;1.20;;;;;;;;;;10561659;28;20475;-81
2024/02/09 11:37:06;;;;;;;2.95;1.30;;;;;;;;;;10562218;28;20104;-82
2024/02/09 11:42:07;;;;;;;;;;;;;;;;;;10560409;28;20020;-82
2024/02/09 11:47:08;;;;;;;3.30;1.35;;;;;;;;;;10557976;28;19926;-83
2024/02/09 11:52:09;;;;;;;;;;;;;;;;;;10565138;28;20065;-81
2024/02/09 11:57:10;;;;;;;3.80;1.30;;;;;;;;;;10581310;28;19962;-83
2024/02/09 12:02:14;;;;;;;;;;;;;;;;;;10554589;28;20222;-82
2024/02/09 12:07:17;;;;;;;3.83;1.42;;;;;;;;;;10556965;28;19996;-81
2024/02/09 12:12:22;;;;;;;4.57;1.65;;;;;;;;;;10555962;28;20058;-83
2024/02/09 12:17:23;;;;;;;2.97;1.35;;;;;;;;;;10557338;28;20024;-83
2024/02/09 12:22:24;;;;;;;4.25;1.73;;;;;;;;;;10553896;28;20073;-83
2024/02/09 12:27:25;;;;;;;;;;;;;;;;;;10561250;28;20050;-83
2024/02/09 12:32:26;;;;;;;1.98;1.42;;;;;;;;;;10561462;28;20430;-83
2024/02/09 12:37:28;;;;;;;;;;;;;;;;;;10557905;28;20028;-82
2024/02/09 12:42:31;;;;;;;4.07;1.55;;;;;;;;;;10552242;28;20332;-82
2024/02/09 12:47:32;;;;;;;3.33;1.77;;;;;;;;;;10560710;28;20028;-83
2024/02/09 12:52:35;;;;;;;;;;;;;;;;;;10555923;28;20518;-82
2024/02/09 12:57:38;;;;;;;3.55;1.67;;;;;;;;;;10557405;28;19904;-82
2024/02/09 13:02:39;;;;;;;2.80;1.33;;;;;;;;;;10556376;28;20027;-84
2024/02/09 13:07:40;;;;;;;4.53;2.22;;;;;;;;;;10571861;28;20024;-81
2024/02/09 13:12:42;;;;;;;;;;;;;;;;;;10567682;28;20028;-80
2024/02/09 13:17:43;;;;;;;3.42;1.60;;;;;;;;;;10555072;28;19910;-80
2024/02/09 13:22:44;;;;;;;;;;;;;;;;;;10545344;28;20024;-80
2024/02/09 13:27:46;;;;;;;5.28;1.80;;;;;;;;;;10543640;28;19904;-79
2024/02/09 13:32:48;;;;;;;3.45;1.60;;;;;;;;;;10544833;28;20028;-80
2024/02/09 13:37:49;;;;;;;3.78;1.60;;;;;;;;;;10544970;28;20020;-79
2024/02/09 13:42:51;;;;;;;2.35;1.13;;;;;;;;;;10544114;28;20024;-80
2024/02/09 13:47:52;;;;;;;5.55;2.03;;;;;;;;;;10544556;28;20020;-80
2024/02/09 13:52:54;;;;;;;3.63;1.23;;;;;;;;;;10546460;28;20028;-82
2024/02/09 13:57:55;;;;;;;3.08;1.65;;;;;;;;;;10546795;28;20023;-82
2024/02/09 14:02:56;;;;;;;;;;;;;;;;;;10549172;28;20103;-81
2024/02/09 14:07:57;;;;;;;3.20;1.70;;;;;;;;;;10548830;28;19904;-81
2024/02/09 14:12:58;;;;;;;3.38;1.90;;;;;;;;;;10550634;28;20046;-81
2024/02/09 14:17:59;;;;;;;3.80;1.40;;;;;;;;;;10552339;28;20020;-79
2024/02/09 14:23:00;;;;;;;2.85;1.45;;;;;;;;;;10551484;28;20032;-79
2024/02/09 14:28:01;;;;;;;3.33;1.40;;;;;;;;;;10552384;28;20024;-80
2024/02/09 14:33:02;;;;;;;7.00;3.40;;;;;;;;;;10554786;28;20024;-81
2024/02/09 14:38:03;;;;;;;2.83;1.50;;;;;;;;;;10548161;28;20030;-81
2024/02/09 14:43:05;;;;;;;3.20;1.65;;;;;;;;;;10545756;28;20488;-81
2024/02/09 14:48:06;;;;;;;3.42;1.52;;;;;;;;;;10546402;28;20016;-80
2024/02/09 14:53:08;;;;;;;11.43;7.60;;;;;;;;;;10545991;28;20044;-81
2024/02/09 14:58:10;;;;;;;3.28;1.40;;;;;;;;;;10547095;28;20027;-81
2024/02/09 15:03:11;;;;;;;4.55;1.63;;;;;;;;;;10553016;28;20032;-81
2024/02/09 15:08:13;;;;;;;3.78;1.90;;;;;;;;;;10561906;28;20115;-81
2024/02/09 15:13:14;;;;;;;3.25;1.70;;;;;;;;;;10567885;28;20028;-82
2024/02/09 15:18:15;;;;;;;2.75;1.52;;;;;;;;;;10556083;28;20482;-81
2024/02/09 15:23:17;;;;;;;5.90;3.55;;;;;;;;;;10555320;28;20029;-81
2024/02/09 15:28:18;;;;;;;6.30;2.40;;;;;;;;;;10556035;28;20099;-81
2024/02/09 15:33:21;;;;;;;4.97;2.35;;;;;;;;;;10557393;28;20042;-81
2024/02/09 15:38:22;;;;;;;5.85;2.35;;;;;;;;;;10555043;28;20391;-81
2024/02/09 15:43:24;;;;;;;4.18;2.40;;;;;;;;;;10556656;28;20031;-81
2024/02/09 15:48:25;;;;;;;3.95;2.53;;;;;;;;;;10551537;28;20024;-80
2024/02/09 15:53:26;;;;;;;3.75;2.30;;;;;;;;;;10552980;28;20108;-81
2024/02/09 15:58:28;;;;;;;6.40;2.25;;;;;;;;;;10552832;28;20073;-81
2024/02/09 16:03:31;;;;;;;7.30;2.38;;;;;;;;;;10553590;28;20043;-81
2024/02/09 16:08:32;;;;;;;4.47;2.30;;;;;;;;;;10552131;28;20027;-81
2024/02/09 16:13:33;;;;;;;4.55;2.28;;;;;;;;;;10550930;28;20027;-81
2024/02/09 16:18:35;;;;;;;4.20;2.45;;;;;;;;;;10552512;28;20166;-82
2024/02/09 16:23:39;;;;;;;5.18;2.65;;;;;;;;;;10575111;28;20020;-83
2024/02/09 16:28:40;;;;;;;4.88;2.70;;;;;;;;;;10557242;28;20035;-82
2024/02/09 16:33:43;;;;;;;3.75;2.90;;;;;;;;;;10557294;28;20072;-81
2024/02/09 16:38:44;;;;;;;3.42;2.33;;;;;;;;;;10550535;28;20047;-81
2024/02/09 16:43:46;;;;;;;3.58;2.10;;;;;;;;;;10551564;28;20055;-81
2024/02/09 16:48:47;;;;;;;3.63;2.20;;;;;;;;;;10552300;28;20107;-82
2024/02/09 16:53:48;;;;;;;3.38;2.00;;;;;;;;;;10552056;28;20058;-82
2024/02/09 16:58:50;;;;;;;3.55;2.05;;;;;;;;;;10563725;28;20480;-81
2024/02/09 17:03:51;;;;;;;2.97;2.00;;;;;;;;;;10552027;28;20387;-81
2024/02/09 17:08:52;;;;;;;3.53;1.60;;;;;;;;;;10549914;28;20035;-80
2024/02/09 17:13:53;;;;;;;3.05;1.58;;;;;;;;;;10551085;28;20030;-80
2024/02/09 17:18:54;;;;;;;2.35;1.83;;;;;;;;;;10556326;28;20028;-78
2024/02/09 17:23:55;;;;;;;4.20;1.70;;;;;;;;;;10580431;27;20095;-81
2024/02/09 18:36:56;;;;;;;4.30;2.03;;;;;;;;;;10387217;28;20109;-85
2024/02/09 19:33:29;;;;;;;5.40;2.88;;;;;;;;;;10579856;27;20031;-87
2024/02/09 20:07:35;;;;;;;4.70;2.60;;;;;;;;;;10559159;28;20062;-88
